createdAt,value
2019-05-02T00:00:59.952Z,84.85
2019-05-02T00:01:59.817Z,84.95
2019-05-02T00:02:59.944Z,84.85
2019-05-02T00:03:59.794Z,84.85
2019-05-02T00:04:59.794Z,85.36
2019-05-02T00:06:03.029Z,85.26
2019-05-02T00:07:00.764Z,84.85
2019-05-02T00:07:59.752Z,84.95
2019-05-02T00:09:03.923Z,84.85
2019-05-02T00:10:00.734Z,84.95
2019-05-02T00:10:59.763Z,85.26
2019-05-02T00:11:59.731Z,85.47
2019-05-02T00:12:59.703Z,85.36
2019-05-02T00:13:59.689Z,85.06
2019-05-02T00:15:01.827Z,85.36
2019-05-02T00:15:59.669Z,85.16
2019-05-02T00:16:59.679Z,85.51
2019-05-02T00:18:01.474Z,86.02
2019-05-02T00:18:59.637Z,85.98
2019-05-02T00:19:59.629Z,85.36
2019-05-02T00:21:01.413Z,85.61
2019-05-02T00:21:59.626Z,85.68
2019-05-02T00:22:59.595Z,85.36
2019-05-02T00:24:02.968Z,85.57
2019-05-02T00:24:59.575Z,85.68
2019-05-02T00:25:59.562Z,85.41
2019-05-02T00:27:01.353Z,85.26
2019-05-02T00:27:59.545Z,85.41
2019-05-02T00:28:59.532Z,85.71
2019-05-02T00:30:00.407Z,85.71
2019-05-02T00:30:59.511Z,85.36
2019-05-02T00:31:59.519Z,85.82
2019-05-02T00:32:59.624Z,85.61
2019-05-02T00:33:59.480Z,85.41
2019-05-02T00:34:59.471Z,85.82
2019-05-02T00:35:59.475Z,87.05
2019-05-02T00:36:59.468Z,86.95
2019-05-02T00:38:02.528Z,86.74
2019-05-02T00:38:59.427Z,86.74
2019-05-02T00:39:59.416Z,86.85
2019-05-02T00:41:02.163Z,86.64
2019-05-02T00:42:12.059Z,86.85
2019-05-02T00:43:00.384Z,86.68
2019-05-02T00:43:59.374Z,86.58
2019-05-02T00:44:59.372Z,86.79
2019-05-02T00:45:59.743Z,86.68
2019-05-02T00:46:59.362Z,87.19
2019-05-02T00:47:59.331Z,86.99
2019-05-02T00:48:59.969Z,87.30
2019-05-02T00:49:59.314Z,87.30
2019-05-02T00:50:59.304Z,87.19
2019-05-02T00:52:01.368Z,86.88
2019-05-02T00:52:59.278Z,86.79
2019-05-02T00:53:59.276Z,86.16
2019-05-02T00:54:59.884Z,85.55
2019-05-02T00:55:59.248Z,85.65
2019-05-02T00:56:59.256Z,85.34
2019-05-02T00:57:59.225Z,84.93
2019-05-02T00:59:02.404Z,84.52
2019-05-02T01:00:00.207Z,84.72
2019-05-02T01:00:59.195Z,84.83
2019-05-02T01:02:00.084Z,85.14
2019-05-02T01:03:00.182Z,84.93
2019-05-02T01:03:59.163Z,85.24
2019-05-02T01:05:03.152Z,84.93
2019-05-02T01:05:59.143Z,84.72
2019-05-02T01:06:59.151Z,84.93
2019-05-02T01:08:01.119Z,83.94
2019-05-02T01:08:59.110Z,84.11
2019-05-02T01:09:59.102Z,84.00
2019-05-02T01:10:59.089Z,84.21
2019-05-02T01:12:03.079Z,83.90
2019-05-02T01:13:00.067Z,84.14
2019-05-02T01:13:59.060Z,83.59
2019-05-02T01:15:03.228Z,83.59
2019-05-02T01:16:00.033Z,83.94
2019-05-02T01:16:59.049Z,84.56
2019-05-02T01:18:01.045Z,84.66
2019-05-02T01:19:00.005Z,85.07
2019-05-02T01:19:58.996Z,85.17
2019-05-02T01:21:02.827Z,85.49
2019-05-02T01:21:59.998Z,85.17
2019-05-02T01:22:58.964Z,85.69
2019-05-02T01:24:02.992Z,86.66
2019-05-02T01:24:58.941Z,86.55
2019-05-02T01:25:58.930Z,86.24
2019-05-02T01:26:59.918Z,86.15
2019-05-02T01:27:59.959Z,87.07
2019-05-02T01:28:58.899Z,86.76
2019-05-02T01:30:01.416Z,87.07
2019-05-02T01:30:59.880Z,87.48
2019-05-02T01:31:58.868Z,87.11
2019-05-02T01:33:01.267Z,86.97
2019-05-02T01:33:59.848Z,86.70
2019-05-02T01:34:58.837Z,87.48
2019-05-02T01:36:01.757Z,87.63
2019-05-02T01:36:59.815Z,87.52
2019-05-02T01:37:58.822Z,87.07
2019-05-02T01:39:03.043Z,87.11
2019-05-02T01:39:59.782Z,87.83
2019-05-02T01:40:58.772Z,87.42
2019-05-02T01:41:59.977Z,87.21
2019-05-02T01:42:59.775Z,87.21
2019-05-02T01:44:00.145Z,87.63
2019-05-02T01:44:58.733Z,87.42
2019-05-02T01:45:58.722Z,87.52
2019-05-02T01:46:59.968Z,87.42
2019-05-02T01:47:58.705Z,87.63
2019-05-02T01:48:58.713Z,87.11
2019-05-02T01:49:59.177Z,86.80
2019-05-02T01:50:58.667Z,86.90
2019-05-02T01:51:58.658Z,87.11
2019-05-02T01:53:00.169Z,87.01
2019-05-02T01:54:00.178Z,86.60
2019-05-02T01:54:58.629Z,86.18
2019-05-02T01:55:59.399Z,86.18
2019-05-02T01:56:58.610Z,87.11
2019-05-02T01:57:58.594Z,87.11
2019-05-02T01:58:58.958Z,87.21
2019-05-02T01:59:58.576Z,87.26
2019-05-02T02:00:58.565Z,87.56
2019-05-02T02:01:59.181Z,87.11
2019-05-02T02:02:58.544Z,87.32
2019-05-02T02:04:00.179Z,87.46
2019-05-02T02:04:58.522Z,87.26
2019-05-02T02:05:58.549Z,87.46
2019-05-02T02:06:58.499Z,87.35
2019-05-02T02:07:58.492Z,87.26
2019-05-02T02:08:58.506Z,87.46
2019-05-02T02:09:58.469Z,87.56
2019-05-02T02:10:58.458Z,87.46
2019-05-02T02:11:58.448Z,87.77
2019-05-02T02:13:04.858Z,88.24
2019-05-02T02:14:01.180Z,88.39
2019-05-02T02:14:58.422Z,88.08
2019-05-02T02:16:00.197Z,88.49
2019-05-02T02:16:59.393Z,88.18
2019-05-02T02:17:58.384Z,88.90
2019-05-02T02:18:59.103Z,89.22
2019-05-02T02:19:59.381Z,88.90
2019-05-02T02:20:58.353Z,88.90
2019-05-02T02:22:02.783Z,88.80
2019-05-02T02:22:59.332Z,89.73
2019-05-02T02:23:58.325Z,89.83
2019-05-02T02:25:00.979Z,89.83
2019-05-02T02:25:58.307Z,89.62
2019-05-02T02:26:58.296Z,90.04
2019-05-02T02:27:59.714Z,90.76
2019-05-02T02:28:58.268Z,90.55
2019-05-02T02:29:58.284Z,91.69
2019-05-02T02:31:04.949Z,92.10
2019-05-02T02:31:59.246Z,91.07
2019-05-02T02:33:00.911Z,92.00
2019-05-02T02:33:59.218Z,91.07
2019-05-02T02:35:03.452Z,91.07
2019-05-02T02:35:59.205Z,91.28
2019-05-02T02:36:58.187Z,91.54
2019-05-02T02:37:58.180Z,91.58
2019-05-02T02:38:58.163Z,91.38
2019-05-02T02:39:58.177Z,91.38
2019-05-02T02:40:58.143Z,92.61
2019-05-02T02:41:58.135Z,92.41
2019-05-02T02:42:58.125Z,92.78
2019-05-02T02:44:00.546Z,93.54
2019-05-02T02:44:58.130Z,93.03
2019-05-02T02:45:59.795Z,93.54
2019-05-02T02:46:58.083Z,92.78
2019-05-02T02:47:59.948Z,93.60
2019-05-02T02:48:58.060Z,93.40
2019-05-02T02:50:02.327Z,93.30
2019-05-02T02:50:59.039Z,93.71
2019-05-02T02:52:04.203Z,93.60
2019-05-02T02:52:59.017Z,93.81
2019-05-02T02:54:03.860Z,93.50
2019-05-02T02:54:59.728Z,93.60
2019-05-02T02:56:01.654Z,93.60
2019-05-02T02:56:58.975Z,93.19
2019-05-02T02:57:58.580Z,93.25
2019-05-02T02:58:58.954Z,93.71
2019-05-02T03:00:06.302Z,93.71
2019-05-02T03:00:58.966Z,94.12
2019-05-02T03:02:09.278Z,93.40
2019-05-02T03:02:58.913Z,93.77
2019-05-02T03:04:01.781Z,93.71
2019-05-02T03:04:58.891Z,93.56
2019-05-02T03:05:58.582Z,92.47
2019-05-02T03:06:58.871Z,93.30
2019-05-02T03:07:59.456Z,92.94
2019-05-02T03:08:58.854Z,93.40
2019-05-02T03:09:59.646Z,92.99
2019-05-02T03:10:58.850Z,93.40
2019-05-02T03:12:02.220Z,91.81
2019-05-02T03:12:58.806Z,92.53
2019-05-02T03:14:05.559Z,93.25
2019-05-02T03:14:58.786Z,93.56
2019-05-02T03:16:00.281Z,93.66
2019-05-02T03:16:58.782Z,92.84
2019-05-02T03:17:59.944Z,93.66
2019-05-02T03:18:57.746Z,91.91
2019-05-02T03:20:01.162Z,90.78
2019-05-02T03:20:58.723Z,91.91
2019-05-02T03:22:03.443Z,93.15
2019-05-02T03:22:58.700Z,92.63
2019-05-02T03:24:03.055Z,93.15
2019-05-02T03:24:58.681Z,92.49
2019-05-02T03:25:57.671Z,90.01
2019-05-02T03:26:58.355Z,91.87
2019-05-02T03:27:57.652Z,92.49
2019-05-02T03:29:00.280Z,92.59
2019-05-02T03:29:57.634Z,92.69
2019-05-02T03:30:57.619Z,92.29
2019-05-02T03:32:14.187Z,91.97
2019-05-02T03:33:05.994Z,91.77
2019-05-02T03:34:00.647Z,91.36
2019-05-02T03:34:57.580Z,90.73
2019-05-02T03:35:57.568Z,90.01
2019-05-02T03:37:03.155Z,91.87
2019-05-02T03:37:58.563Z,92.38
2019-05-02T03:38:57.534Z,91.56
2019-05-02T03:40:00.276Z,92.80
2019-05-02T03:40:57.512Z,92.49
2019-05-02T03:42:02.855Z,92.18
2019-05-02T03:42:58.544Z,91.87
2019-05-02T03:44:10.645Z,91.87
2019-05-02T03:45:04.450Z,92.08
2019-05-02T03:45:58.470Z,92.18
2019-05-02T03:47:02.176Z,92.38
2019-05-02T03:47:58.469Z,92.08
2019-05-02T03:49:06.070Z,91.15
2019-05-02T03:49:58.417Z,91.46
2019-05-02T03:50:57.411Z,91.83
2019-05-02T03:52:03.022Z,91.97
2019-05-02T03:52:58.412Z,91.93
2019-05-02T03:54:06.435Z,91.87
2019-05-02T03:54:58.400Z,91.93
2019-05-02T03:55:57.369Z,91.42
2019-05-02T03:56:57.348Z,91.05
2019-05-02T03:57:57.355Z,91.42
2019-05-02T03:58:58.289Z,91.72
2019-05-02T03:59:57.317Z,93.11
2019-05-02T04:01:01.760Z,91.72
2019-05-02T04:01:58.292Z,92.03
2019-05-02T04:03:00.475Z,93.16
2019-05-02T04:03:58.271Z,92.24
2019-05-02T04:05:01.055Z,92.14
2019-05-02T04:05:58.249Z,91.97
2019-05-02T04:07:01.189Z,92.03
2019-05-02T04:07:57.230Z,93.16
2019-05-02T04:09:00.125Z,89.46
2019-05-02T04:09:57.221Z,89.97
2019-05-02T04:10:59.378Z,91.72
2019-05-02T04:11:57.184Z,91.83
2019-05-02T04:12:58.416Z,92.24
2019-05-02T04:13:57.197Z,92.03
2019-05-02T04:14:57.455Z,92.03
2019-05-02T04:15:57.145Z,91.93
2019-05-02T04:16:57.337Z,91.83
2019-05-02T04:17:57.123Z,91.21
2019-05-02T04:18:58.169Z,90.69
2019-05-02T04:19:57.099Z,91.52
2019-05-02T04:20:57.092Z,91.52
2019-05-02T04:22:01.468Z,91.72
2019-05-02T04:22:58.080Z,90.59
2019-05-02T04:24:07.788Z,91.00
2019-05-02T04:24:58.051Z,91.42
2019-05-02T04:25:57.037Z,90.90
2019-05-02T04:26:57.028Z,91.47
2019-05-02T04:27:57.031Z,91.99
2019-05-02T04:28:57.030Z,91.42
2019-05-02T04:29:56.998Z,91.17
2019-05-02T04:30:56.989Z,91.83
2019-05-02T04:31:56.987Z,92.65
2019-05-02T04:32:57.871Z,92.44
2019-05-02T04:33:56.959Z,91.47
2019-05-02T04:34:57.966Z,91.72
2019-05-02T04:35:59.379Z,91.52
2019-05-02T04:37:00.970Z,91.38
2019-05-02T04:38:01.433Z,91.42
2019-05-02T04:38:59.541Z,91.68
2019-05-02T04:40:00.717Z,91.72
2019-05-02T04:40:59.197Z,91.99
2019-05-02T04:41:58.593Z,91.68
2019-05-02T04:43:01.936Z,91.68
2019-05-02T04:44:01.295Z,92.82
2019-05-02T04:45:13.759Z,92.71
2019-05-02T04:46:00.062Z,92.50
2019-05-02T04:47:02.740Z,91.99
2019-05-02T04:48:03.169Z,90.55
2019-05-02T04:48:58.906Z,92.10
2019-05-02T04:49:58.571Z,92.82
2019-05-02T04:50:59.427Z,93.54
2019-05-02T04:52:05.947Z,91.99
2019-05-02T04:52:59.241Z,91.78
2019-05-02T04:53:58.844Z,93.23
2019-05-02T04:55:12.062Z,92.82
2019-05-02T04:56:04.346Z,92.82
2019-05-02T04:57:01.830Z,92.50
2019-05-02T04:57:58.768Z,91.38
2019-05-02T04:59:01.367Z,90.55
2019-05-02T05:00:05.930Z,91.17
2019-05-02T05:01:01.549Z,92.05
2019-05-02T05:01:58.425Z,91.47
2019-05-02T05:02:58.007Z,91.02
2019-05-02T05:04:02.518Z,92.87
2019-05-02T05:04:58.221Z,92.97
2019-05-02T05:06:01.543Z,92.87
2019-05-02T05:07:00.955Z,92.97
2019-05-02T05:07:58.567Z,91.74
2019-05-02T05:08:58.451Z,91.53
2019-05-02T05:10:02.857Z,91.64
2019-05-02T05:10:57.589Z,93.08
2019-05-02T05:11:59.082Z,91.85
2019-05-02T05:12:57.565Z,90.51
2019-05-02T05:13:57.467Z,91.33
2019-05-02T05:14:57.850Z,91.33
2019-05-02T05:15:57.385Z,91.29
2019-05-02T05:16:57.985Z,91.70
2019-05-02T05:17:58.208Z,91.60
2019-05-02T05:18:57.859Z,92.11
2019-05-02T05:19:57.696Z,91.80
2019-05-02T05:20:57.744Z,88.82
2019-05-02T05:22:04.438Z,91.39
2019-05-02T05:22:58.142Z,90.26
2019-05-02T05:24:00.976Z,91.08
2019-05-02T05:24:58.250Z,91.80
2019-05-02T05:26:03.449Z,89.64
2019-05-02T05:26:57.856Z,90.06
2019-05-02T05:27:58.691Z,91.29
2019-05-02T05:28:58.355Z,91.60
2019-05-02T05:29:59.507Z,89.44
2019-05-02T05:30:58.346Z,91.08
2019-05-02T05:32:05.270Z,92.21
2019-05-02T05:32:58.330Z,91.91
2019-05-02T05:33:57.878Z,90.57
2019-05-02T05:34:57.939Z,88.51
2019-05-02T05:35:57.824Z,87.38
2019-05-02T05:36:58.322Z,90.94
2019-05-02T05:37:57.330Z,91.66
2019-05-02T05:38:58.277Z,91.04
2019-05-02T05:39:57.989Z,91.80
2019-05-02T05:40:58.044Z,90.06
2019-05-02T05:41:57.838Z,89.09
2019-05-02T05:42:57.335Z,89.70
2019-05-02T05:43:57.339Z,89.44
2019-05-02T05:44:58.220Z,90.22
2019-05-02T05:46:08.502Z,91.14
2019-05-02T05:46:58.140Z,91.66
2019-05-02T05:47:57.492Z,90.12
2019-05-02T05:48:58.336Z,91.08
2019-05-02T05:49:57.648Z,88.72
2019-05-02T05:50:57.957Z,90.42
2019-05-02T05:52:02.039Z,88.98
2019-05-02T05:52:59.355Z,89.19
2019-05-02T05:53:58.956Z,86.72
2019-05-02T05:54:57.924Z,85.28
2019-05-02T05:55:58.953Z,86.52
2019-05-02T05:56:57.299Z,83.44
2019-05-02T05:58:01.784Z,86.62
2019-05-02T05:58:59.146Z,86.68
2019-05-02T05:59:58.258Z,89.36
2019-05-02T06:00:58.358Z,86.89
2019-05-02T06:01:57.997Z,87.40
2019-05-02T06:03:06.194Z,87.30
2019-05-02T06:03:58.113Z,87.71
2019-05-02T06:05:02.549Z,86.79
2019-05-02T06:05:57.988Z,89.46
2019-05-02T06:07:01.642Z,89.29
2019-05-02T06:07:57.541Z,86.48
2019-05-02T06:08:55.951Z,89.66
2019-05-02T06:09:55.947Z,87.71
2019-05-02T06:10:55.929Z,86.58
2019-05-02T06:11:56.666Z,87.92
2019-05-02T06:12:55.907Z,88.64
2019-05-02T06:13:55.925Z,88.95
2019-05-02T06:14:56.250Z,86.58
2019-05-02T06:16:02.831Z,88.08
2019-05-02T06:16:56.864Z,89.46
2019-05-02T06:17:59.946Z,87.26
2019-05-02T06:18:56.935Z,84.80
2019-05-02T06:19:55.833Z,87.57
2019-05-02T06:20:58.343Z,86.65
2019-05-02T06:21:55.813Z,87.26
2019-05-02T06:23:00.020Z,87.37
2019-05-02T06:23:56.810Z,86.95
2019-05-02T06:24:55.780Z,88.39
2019-05-02T06:25:55.773Z,87.98
2019-05-02T06:26:55.758Z,88.29
2019-05-02T06:28:00.159Z,89.01
2019-05-02T06:28:56.758Z,88.66
2019-05-02T06:29:56.085Z,89.17
2019-05-02T06:30:55.716Z,86.65
2019-05-02T06:31:55.707Z,85.41
2019-05-02T06:32:56.652Z,87.84
2019-05-02T06:33:55.707Z,87.73
2019-05-02T06:34:55.704Z,88.45
2019-05-02T06:36:01.002Z,88.66
2019-05-02T06:36:56.657Z,87.43
2019-05-02T06:37:55.644Z,89.17
2019-05-02T06:38:56.682Z,89.37
2019-05-02T06:39:55.632Z,88.86
2019-05-02T06:40:55.619Z,87.94
2019-05-02T06:41:57.530Z,85.06
2019-05-02T06:42:55.589Z,86.50
2019-05-02T06:43:55.580Z,85.74
2019-05-02T06:44:59.787Z,86.57
2019-05-02T06:45:56.561Z,85.89
2019-05-02T06:46:59.281Z,86.77
2019-05-02T06:47:56.538Z,86.57
2019-05-02T06:48:55.549Z,86.46
2019-05-02T06:49:56.122Z,86.98
2019-05-02T06:50:56.504Z,87.38
2019-05-02T06:51:56.305Z,83.18
2019-05-02T06:52:55.485Z,85.03
2019-05-02T06:53:55.477Z,82.05
2019-05-02T06:54:57.922Z,85.23
2019-05-02T06:55:55.457Z,86.87
2019-05-02T06:56:55.441Z,86.42
2019-05-02T06:57:57.125Z,86.05
2019-05-02T06:58:56.422Z,84.47
2019-05-02T06:59:56.531Z,82.83
2019-05-02T07:00:58.087Z,84.78
2019-05-02T07:01:57.507Z,85.19
2019-05-02T07:02:55.378Z,82.73
2019-05-02T07:03:55.367Z,83.65
2019-05-02T07:04:56.067Z,81.09
2019-05-02T07:05:58.892Z,81.77
2019-05-02T07:06:59.090Z,84.33
2019-05-02T07:07:55.507Z,84.64
2019-05-02T07:08:55.408Z,83.41
2019-05-02T07:09:55.316Z,84.44
2019-05-02T07:10:56.048Z,81.77
2019-05-02T07:11:58.560Z,77.47
2019-05-02T07:13:09.847Z,82.79
2019-05-02T07:13:56.261Z,78.08
2019-05-02T07:14:55.981Z,80.44
2019-05-02T07:15:56.263Z,78.49
2019-05-02T07:16:56.479Z,80.13
2019-05-02T07:17:55.218Z,81.67
2019-05-02T07:18:55.208Z,83.27
2019-05-02T07:19:58.905Z,82.79
2019-05-02T07:20:56.207Z,79.21
2019-05-02T07:21:58.516Z,82.96
2019-05-02T07:22:56.167Z,80.71
2019-05-02T07:23:55.341Z,82.08
2019-05-02T07:24:55.153Z,79.62
2019-05-02T07:25:55.152Z,80.03
2019-05-02T07:26:56.817Z,80.54
2019-05-02T07:27:55.116Z,80.13
2019-05-02T07:28:55.106Z,79.52
2019-05-02T07:29:57.689Z,80.74
2019-05-02T07:30:55.101Z,81.05
2019-05-02T07:31:55.070Z,81.98
2019-05-02T07:32:56.285Z,82.79
2019-05-02T07:33:56.057Z,83.00
2019-05-02T07:34:55.040Z,82.90
2019-05-02T07:35:59.665Z,83.41
2019-05-02T07:36:56.015Z,82.28
2019-05-02T07:37:55.011Z,82.18
2019-05-02T07:38:57.579Z,78.80
2019-05-02T07:39:55.984Z,81.15
2019-05-02T07:40:54.978Z,81.15
2019-05-02T07:41:54.986Z,80.64
2019-05-02T07:42:54.960Z,81.94
2019-05-02T07:43:56.335Z,83.06
2019-05-02T07:44:54.935Z,81.32
2019-05-02T07:45:54.924Z,82.96
2019-05-02T07:46:56.875Z,82.96
2019-05-02T07:47:55.899Z,81.12
2019-05-02T07:48:56.571Z,81.73
2019-05-02T07:49:54.882Z,82.24
2019-05-02T07:50:55.369Z,82.65
2019-05-02T07:51:57.609Z,81.01
2019-05-02T07:52:54.848Z,79.89
2019-05-02T07:53:55.743Z,81.12
2019-05-02T07:54:56.231Z,77.84
2019-05-02T07:55:55.816Z,80.91
2019-05-02T07:56:54.830Z,80.91
2019-05-02T07:57:54.793Z,80.81
2019-05-02T07:58:54.789Z,79.96
2019-05-02T07:59:59.947Z,79.64
2019-05-02T08:00:55.770Z,77.91
2019-05-02T08:01:54.752Z,78.01
2019-05-02T08:02:57.939Z,79.13
2019-05-02T08:03:54.733Z,79.85
2019-05-02T08:04:54.730Z,79.85
2019-05-02T08:05:58.561Z,78.52
2019-05-02T08:06:55.698Z,78.21
2019-05-02T08:07:55.298Z,79.13
2019-05-02T08:08:54.688Z,78.11
2019-05-02T08:09:54.667Z,78.83
2019-05-02T08:11:01.365Z,78.38
2019-05-02T08:11:55.646Z,79.03
2019-05-02T08:12:54.656Z,79.20
2019-05-02T08:13:55.644Z,78.59
2019-05-02T08:14:54.619Z,76.54
2019-05-02T08:15:54.609Z,76.54
2019-05-02T08:17:04.909Z,76.98
2019-05-02T08:17:55.605Z,76.43
2019-05-02T08:18:54.570Z,75.82
2019-05-02T08:19:54.574Z,76.95
2019-05-02T08:20:56.109Z,76.23
2019-05-02T08:21:54.543Z,76.84
2019-05-02T08:22:54.553Z,76.64
2019-05-02T08:23:57.067Z,78.17
2019-05-02T08:24:55.508Z,77.87
2019-05-02T08:25:54.504Z,76.20
2019-05-02T08:26:58.376Z,77.83
2019-05-02T08:27:55.496Z,79.47
2019-05-02T08:28:54.464Z,76.71
2019-05-02T08:29:54.457Z,77.83
2019-05-02T08:30:54.452Z,78.92
2019-05-02T08:31:54.448Z,78.41
2019-05-02T08:32:54.445Z,77.86
2019-05-02T08:33:54.416Z,78.17
2019-05-02T08:34:54.434Z,73.16
2019-05-02T08:35:54.394Z,74.29
2019-05-02T08:36:58.822Z,74.87
2019-05-02T08:37:56.135Z,74.90
2019-05-02T08:38:55.486Z,76.50
2019-05-02T08:39:54.362Z,77.22
2019-05-02T08:40:54.338Z,77.01
2019-05-02T08:41:56.370Z,75.78
2019-05-02T08:42:54.339Z,74.46
2019-05-02T08:43:54.313Z,75.07
2019-05-02T08:44:56.290Z,73.13
2019-05-02T08:45:55.285Z,75.37
2019-05-02T08:46:54.277Z,74.25
2019-05-02T08:47:54.288Z,74.97
2019-05-02T08:48:54.287Z,75.85
2019-05-02T08:49:54.790Z,75.68
2019-05-02T08:50:54.235Z,75.27
2019-05-02T08:51:54.222Z,74.46
2019-05-02T08:52:54.281Z,75.89
2019-05-02T08:53:56.871Z,75.13
2019-05-02T08:54:54.186Z,74.11
2019-05-02T08:55:54.177Z,73.81
2019-05-02T08:56:58.716Z,73.91
2019-05-02T08:57:55.182Z,73.30
2019-05-02T08:58:54.148Z,74.22
2019-05-02T08:59:55.465Z,75.13
2019-05-02T09:00:55.123Z,73.10
2019-05-02T09:01:54.153Z,73.57
2019-05-02T09:02:56.987Z,74.69
2019-05-02T09:03:56.952Z,74.38
2019-05-02T09:04:58.890Z,74.83
2019-05-02T09:06:05.288Z,74.83
2019-05-02T09:06:58.722Z,74.29
2019-05-02T09:07:55.076Z,74.59
2019-05-02T09:08:54.057Z,74.49
2019-05-02T09:09:55.616Z,73.88
2019-05-02T09:10:54.021Z,72.45
2019-05-02T09:12:07.115Z,73.16
2019-05-02T09:12:54.996Z,74.05
2019-05-02T09:13:54.007Z,74.76
2019-05-02T09:14:53.976Z,74.15
2019-05-02T09:15:54.233Z,73.74
2019-05-02T09:16:53.955Z,72.00
2019-05-02T09:17:56.452Z,73.33
2019-05-02T09:18:54.405Z,74.01
2019-05-02T09:20:02.392Z,72.79
2019-05-02T09:20:56.569Z,72.28
2019-05-02T09:21:53.905Z,72.38
2019-05-02T09:22:55.983Z,71.36
2019-05-02T09:23:53.901Z,70.34
2019-05-02T09:24:53.869Z,70.04
2019-05-02T09:25:53.867Z,71.56
2019-05-02T09:26:53.857Z,70.34
2019-05-02T09:27:53.840Z,70.24
2019-05-02T09:28:56.325Z,68.91
2019-05-02T09:29:54.816Z,71.56
2019-05-02T09:30:57.309Z,69.12
2019-05-02T09:31:54.818Z,73.26
2019-05-02T09:32:57.302Z,70.51
2019-05-02T09:33:55.648Z,68.85
2019-05-02T09:34:56.633Z,68.95
2019-05-02T09:35:54.758Z,69.26
2019-05-02T09:36:53.742Z,68.85
2019-05-02T09:37:53.735Z,72.62
2019-05-02T09:38:57.448Z,71.91
2019-05-02T09:39:53.730Z,71.50
2019-05-02T09:40:56.143Z,70.24
2019-05-02T09:41:53.695Z,70.55
2019-05-02T09:43:00.042Z,70.86
2019-05-02T09:43:54.671Z,69.63
2019-05-02T09:44:56.875Z,69.43
2019-05-02T09:45:53.645Z,67.08
2019-05-02T09:46:56.954Z,68.58
2019-05-02T09:48:03.886Z,67.87
2019-05-02T09:48:57.048Z,68.31
2019-05-02T09:49:54.623Z,68.79
2019-05-02T09:50:53.594Z,68.99
2019-05-02T09:51:59.327Z,68.79
2019-05-02T09:52:54.571Z,70.21
2019-05-02T09:53:57.184Z,69.49
2019-05-02T09:54:54.572Z,70.21
2019-05-02T09:55:57.716Z,69.70
2019-05-02T09:56:53.529Z,70.31
2019-05-02T09:57:53.520Z,69.70
2019-05-02T09:58:55.072Z,70.75
2019-05-02T09:59:55.830Z,68.68
2019-05-02T10:00:53.493Z,69.40
2019-05-02T10:01:53.476Z,70.10
2019-05-02T10:02:53.476Z,67.36
2019-05-02T10:03:53.484Z,67.63
2019-05-02T10:04:53.471Z,69.57
2019-05-02T10:05:53.442Z,67.74
2019-05-02T10:06:53.422Z,67.53
2019-05-02T10:07:57.450Z,67.80
2019-05-02T10:08:54.413Z,67.91
2019-05-02T10:09:57.724Z,68.62
2019-05-02T10:10:54.388Z,68.41
2019-05-02T10:11:53.369Z,68.79
2019-05-02T10:12:53.359Z,67.67
2019-05-02T10:13:55.371Z,65.94
2019-05-02T10:14:53.358Z,66.96
2019-05-02T10:15:53.337Z,67.54
2019-05-02T10:16:57.411Z,65.44
2019-05-02T10:18:07.516Z,64.52
2019-05-02T10:18:54.295Z,64.93
2019-05-02T10:19:57.062Z,65.44
2019-05-02T10:20:53.277Z,65.71
2019-05-02T10:21:56.165Z,65.41
2019-05-02T10:22:53.268Z,64.49
2019-05-02T10:23:59.006Z,67.91
2019-05-02T10:24:54.255Z,65.68
2019-05-02T10:25:53.220Z,64.64
2019-05-02T10:26:55.318Z,66.77
2019-05-02T10:27:54.201Z,67.17
2019-05-02T10:28:53.544Z,64.84
2019-05-02T10:29:53.297Z,65.04
2019-05-02T10:30:56.638Z,62.40
2019-05-02T10:31:53.175Z,63.95
2019-05-02T10:32:57.262Z,63.95
2019-05-02T10:33:53.139Z,65.88
2019-05-02T10:34:56.823Z,66.29
2019-05-02T10:35:53.116Z,66.05
2019-05-02T10:36:58.735Z,68.70
2019-05-02T10:37:54.093Z,65.75
2019-05-02T10:38:54.980Z,65.34
2019-05-02T10:39:55.852Z,65.65
2019-05-02T10:40:54.733Z,65.31
2019-05-02T10:41:54.064Z,64.20
2019-05-02T10:42:53.044Z,65.89
2019-05-02T10:43:56.679Z,62.75
2019-05-02T10:44:54.043Z,62.82
2019-05-02T10:45:56.516Z,62.72
2019-05-02T10:46:52.999Z,64.14
2019-05-02T10:47:52.987Z,66.84
2019-05-02T10:48:52.981Z,65.62
2019-05-02T10:49:52.988Z,62.69
2019-05-02T10:50:52.956Z,62.99
2019-05-02T10:51:53.791Z,62.15
2019-05-02T10:52:52.934Z,60.74
2019-05-02T10:53:56.395Z,61.17
2019-05-02T10:54:53.052Z,62.18
2019-05-02T10:55:52.903Z,63.98
2019-05-02T10:56:52.891Z,65.09
2019-05-02T10:57:52.882Z,63.98
2019-05-02T10:58:52.880Z,65.29
2019-05-02T10:59:55.787Z,61.14
2019-05-02T11:00:52.849Z,61.32
2019-05-02T11:01:52.838Z,62.73
2019-05-02T11:02:52.832Z,62.93
2019-05-02T11:03:52.817Z,62.53
2019-05-02T11:04:52.830Z,61.92
2019-05-02T11:05:53.106Z,61.49
2019-05-02T11:06:56.635Z,60.27
2019-05-02T11:07:56.918Z,58.96
2019-05-02T11:08:53.763Z,59.16
2019-05-02T11:09:57.113Z,57.44
2019-05-02T11:10:53.744Z,57.85
2019-05-02T11:11:52.732Z,57.95
2019-05-02T11:12:56.012Z,60.38
2019-05-02T11:14:00.524Z,60.78
2019-05-02T11:14:53.717Z,60.48
2019-05-02T11:15:52.687Z,59.94
2019-05-02T11:16:52.678Z,59.47
2019-05-02T11:17:53.018Z,56.94
2019-05-02T11:18:52.745Z,56.84
2019-05-02T11:19:52.663Z,57.04
2019-05-02T11:20:52.637Z,56.66
2019-05-02T11:21:58.641Z,56.84
2019-05-02T11:22:54.602Z,60.48
2019-05-02T11:23:52.822Z,59.27
2019-05-02T11:24:52.617Z,56.84
2019-05-02T11:25:52.743Z,57.04
2019-05-02T11:26:52.940Z,56.91
2019-05-02T11:27:52.646Z,60.35
2019-05-02T11:28:52.547Z,57.21
2019-05-02T11:29:52.695Z,58.83
2019-05-02T11:30:52.615Z,60.35
2019-05-02T11:31:52.514Z,58.93
2019-05-02T11:32:52.505Z,57.01
2019-05-02T11:33:52.860Z,60.35
2019-05-02T11:34:52.559Z,60.14
2019-05-02T11:35:53.539Z,57.89
2019-05-02T11:36:52.817Z,56.78
2019-05-02T11:37:52.450Z,58.09
2019-05-02T11:39:00.257Z,58.00
2019-05-02T11:39:59.418Z,57.89
2019-05-02T11:40:53.437Z,59.31
2019-05-02T11:41:52.801Z,59.31
2019-05-02T11:42:52.401Z,59.71
2019-05-02T11:43:55.670Z,58.40
2019-05-02T11:44:52.446Z,58.80
2019-05-02T11:45:55.821Z,58.93
2019-05-02T11:46:53.353Z,60.02
2019-05-02T11:47:55.810Z,56.91
2019-05-02T11:48:56.428Z,57.59
2019-05-02T11:49:55.844Z,56.98
2019-05-02T11:50:52.475Z,56.98
2019-05-02T11:51:56.893Z,57.49
2019-05-02T11:52:52.479Z,57.79
2019-05-02T11:53:52.789Z,57.59
2019-05-02T11:54:52.269Z,57.59
2019-05-02T11:55:53.166Z,60.12
2019-05-02T11:56:53.550Z,57.82
2019-05-02T11:57:52.418Z,57.82
2019-05-02T11:58:52.813Z,58.70
2019-05-02T11:59:52.222Z,59.00
2019-05-02T12:00:52.465Z,55.47
2019-05-02T12:01:59.796Z,57.59
2019-05-02T12:02:56.690Z,58.80
2019-05-02T12:03:53.176Z,58.20
2019-05-02T12:04:55.456Z,56.78
2019-05-02T12:05:52.547Z,55.34
2019-05-02T12:07:01.012Z,56.85
2019-05-02T12:07:53.129Z,57.67
2019-05-02T12:08:52.661Z,57.06
2019-05-02T12:09:57.092Z,57.43
2019-05-02T12:10:53.115Z,55.32
2019-05-02T12:11:56.413Z,56.30
2019-05-02T12:12:52.696Z,55.19
2019-05-02T12:13:56.791Z,54.99
2019-05-02T12:14:53.053Z,53.07
2019-05-02T12:15:52.126Z,53.27
2019-05-02T12:16:52.722Z,53.07
2019-05-02T12:17:52.029Z,56.77
2019-05-02T12:18:53.829Z,55.16
2019-05-02T12:19:53.001Z,53.25
2019-05-02T12:20:52.249Z,54.56
2019-05-02T12:21:52.877Z,53.38
2019-05-02T12:22:52.812Z,54.89
2019-05-02T12:23:52.636Z,55.19
2019-05-02T12:24:52.041Z,56.20
2019-05-02T12:25:52.152Z,55.29
2019-05-02T12:26:52.871Z,54.38
2019-05-02T12:27:52.680Z,54.89
2019-05-02T12:28:52.705Z,56.90
2019-05-02T12:29:57.748Z,54.76
2019-05-02T12:30:52.882Z,52.76
2019-05-02T12:31:55.005Z,56.88
2019-05-02T12:32:53.112Z,56.48
2019-05-02T12:33:51.852Z,52.54
2019-05-02T12:34:52.618Z,55.36
2019-05-02T12:35:52.467Z,52.74
2019-05-02T12:36:52.422Z,54.66
2019-05-02T12:37:54.935Z,56.65
2019-05-02T12:38:52.779Z,55.44
2019-05-02T12:39:51.850Z,53.40
2019-05-02T12:40:52.099Z,53.00
2019-05-02T12:41:53.700Z,52.89
2019-05-02T12:42:52.573Z,53.30
2019-05-02T12:43:52.414Z,52.59
2019-05-02T12:44:53.267Z,50.78
2019-05-02T12:45:52.838Z,55.21
2019-05-02T12:46:51.938Z,56.60
2019-05-02T12:47:52.325Z,55.08
2019-05-02T12:48:52.163Z,49.65
2019-05-02T12:49:52.046Z,51.36
2019-05-02T12:50:52.773Z,51.54
2019-05-02T12:51:52.479Z,52.26
2019-05-02T12:52:52.140Z,52.57